createdAt,value
2022-09-23T00:01:26.831Z,6.47
2022-09-23T00:03:53.684Z,6.47
2022-09-23T00:06:23.100Z,5.25
2022-09-23T00:11:24.242Z,14.40
2022-09-23T00:13:53.703Z,7.05
2022-09-23T00:18:51.192Z,5.40
2022-09-23T00:21:19.352Z,7.28
2022-09-23T00:23:48.696Z,6.13
2022-09-23T00:26:19.099Z,5.97
2022-09-23T00:28:48.618Z,5.70
2022-09-23T00:33:59.929Z,6.15
2022-09-23T00:36:29.894Z,6.43
2022-09-23T00:38:59.284Z,7.18
2022-09-23T00:41:26.778Z,6.88
2022-09-23T00:43:57.518Z,6.35
2022-09-23T00:46:31.267Z,5.50
2022-09-23T00:49:23.781Z,7.07
2022-09-23T00:51:54.522Z,9.65
2022-09-23T00:54:22.277Z,6.80
2022-09-23T00:56:54.866Z,9.68
2022-09-23T00:59:24.486Z,5.93
2022-09-23T01:01:58.226Z,5.18
2022-09-23T01:04:29.572Z,4.82
2022-09-23T01:06:59.049Z,6.00
2022-09-23T01:09:30.557Z,6.57
2022-09-23T01:12:14.744Z,8.88
2022-09-23T01:15:00.474Z,6.85
2022-09-23T01:17:30.162Z,6.47
2022-09-23T01:20:06.304Z,6.90
2022-09-23T01:22:51.211Z,7.97
2022-09-23T01:25:42.200Z,6.78
2022-09-23T01:28:42.453Z,5.45
2022-09-23T01:31:35.874Z,5.55
2022-09-23T01:34:35.636Z,6.82
2022-09-23T01:37:16.021Z,8.30
2022-09-23T01:40:10.250Z,7.10
2022-09-23T01:43:16.078Z,6.07
2022-09-23T01:45:46.204Z,6.30
2022-09-23T01:48:36.361Z,6.93
2022-09-23T01:51:14.239Z,6.35
2022-09-23T01:53:55.955Z,7.75
2022-09-23T01:56:27.145Z,6.18
2022-09-23T01:59:14.651Z,8.18
2022-09-23T02:01:50.883Z,7.47
2022-09-23T02:04:25.426Z,6.65
2022-09-23T02:07:05.090Z,6.07
2022-09-23T02:10:00.720Z,5.35
2022-09-23T02:12:29.976Z,6.20
2022-09-23T02:15:02.901Z,6.82
2022-09-23T02:17:36.965Z,7.70
2022-09-23T02:20:06.077Z,7.68
2022-09-23T02:23:06.182Z,4.85
2022-09-23T02:25:45.992Z,5.95
2022-09-23T02:28:19.261Z,10.77
2022-09-23T02:30:56.192Z,4.45
2022-09-23T02:33:35.317Z,6.15
2022-09-23T02:36:12.820Z,5.57
2022-09-23T02:38:51.161Z,6.38
2022-09-23T02:41:32.655Z,6.43
2022-09-23T02:44:06.250Z,5.32
2022-09-23T02:46:33.788Z,6.72
2022-09-23T02:49:04.708Z,7.90
2022-09-23T02:51:35.032Z,6.05
2022-09-23T02:54:03.571Z,7.60
2022-09-23T02:56:30.258Z,6.63
2022-09-23T02:58:57.009Z,7.82
2022-09-23T03:01:47.682Z,7.60
2022-09-23T03:04:31.651Z,4.88
2022-09-23T03:07:06.353Z,7.88
2022-09-23T03:09:40.836Z,4.85
2022-09-23T03:12:36.146Z,7.70
2022-09-23T03:15:14.324Z,5.05
2022-09-23T03:18:03.664Z,7.72
2022-09-23T03:23:19.859Z,5.80
2022-09-23T03:25:49.975Z,4.20
2022-09-23T03:28:20.324Z,5.13
2022-09-23T03:30:47.144Z,6.07
2022-09-23T03:33:16.699Z,5.78
2022-09-23T03:36:09.441Z,6.55
2022-09-23T03:38:39.113Z,6.18
2022-09-23T03:41:05.850Z,5.47
2022-09-23T03:43:38.724Z,7.65
2022-09-23T03:46:25.394Z,6.25
2022-09-23T03:48:52.155Z,6.15
2022-09-23T03:51:23.869Z,6.75
2022-09-23T03:53:55.517Z,5.72
2022-09-23T03:56:23.607Z,5.57
2022-09-23T03:58:50.278Z,5.03
2022-09-23T04:01:19.649Z,4.85
2022-09-23T04:03:49.123Z,5.07
2022-09-23T04:08:51.619Z,6.15
2022-09-23T04:11:21.574Z,5.45
2022-09-23T04:13:53.619Z,6.43
2022-09-23T04:16:20.456Z,6.28
2022-09-23T04:18:47.129Z,6.25
2022-09-23T04:21:13.831Z,5.32
2022-09-23T04:23:42.901Z,4.40
2022-09-23T04:26:10.156Z,5.07
2022-09-23T04:28:36.897Z,4.60
2022-09-23T04:31:05.142Z,4.50
2022-09-23T04:33:38.919Z,6.80
2022-09-23T04:36:08.320Z,9.00
2022-09-23T04:38:35.032Z,6.57
2022-09-23T04:41:04.205Z,5.70
2022-09-23T04:43:35.734Z,5.75
2022-09-23T04:46:11.265Z,8.20
2022-09-23T04:48:41.808Z,5.05
2022-09-23T04:51:10.857Z,5.80
2022-09-23T04:53:39.275Z,6.22
2022-09-23T04:56:09.851Z,6.90
2022-09-23T04:58:36.837Z,6.53
2022-09-23T05:01:18.817Z,8.25
2022-09-23T05:03:46.368Z,5.35
2022-09-23T05:06:20.501Z,4.10
2022-09-23T05:08:54.859Z,8.98
2022-09-23T05:11:22.044Z,6.53
2022-09-23T05:13:50.639Z,6.20
2022-09-23T05:16:19.883Z,5.90
2022-09-23T05:18:48.316Z,5.28
2022-09-23T05:21:19.351Z,8.20
2022-09-23T05:23:56.564Z,4.63
2022-09-23T05:26:27.319Z,5.38
2022-09-23T05:28:59.206Z,8.00
2022-09-23T05:31:29.840Z,5.10
2022-09-23T05:33:58.830Z,7.38
2022-09-23T05:36:28.881Z,8.35
2022-09-23T05:38:56.579Z,10.10
2022-09-23T05:41:23.937Z,9.25
2022-09-23T05:43:54.213Z,7.18
2022-09-23T05:46:28.162Z,5.28
2022-09-23T05:49:06.754Z,5.30
2022-09-23T05:51:35.707Z,6.35
2022-09-23T05:54:04.314Z,5.47
2022-09-23T05:56:32.098Z,6.93
2022-09-23T05:59:00.657Z,6.75
2022-09-23T06:01:32.252Z,5.13
2022-09-23T06:04:00.068Z,7.88
2022-09-23T06:06:37.081Z,8.65
2022-09-23T06:09:06.621Z,7.38
2022-09-23T06:11:34.822Z,5.22
2022-09-23T06:14:02.517Z,6.50
2022-09-23T06:16:34.789Z,9.38
2022-09-23T06:19:07.816Z,7.80
2022-09-23T06:21:36.566Z,7.05
2022-09-23T06:24:07.013Z,8.60
2022-09-23T06:26:37.766Z,9.90
2022-09-23T06:29:14.597Z,7.03
2022-09-23T06:31:43.680Z,10.95
2022-09-23T06:34:13.412Z,13.35
2022-09-23T06:36:45.882Z,8.98
2022-09-23T06:39:15.832Z,6.50
2022-09-23T06:44:15.620Z,7.88
2022-09-23T06:46:44.808Z,7.50
2022-09-23T06:49:16.365Z,9.05
2022-09-23T06:51:45.569Z,7.63
2022-09-23T06:54:12.267Z,8.38
2022-09-23T06:56:39.993Z,7.65
2022-09-23T06:59:09.659Z,5.45
2022-09-23T07:04:03.199Z,5.65
2022-09-23T07:06:29.889Z,6.25
2022-09-23T07:08:59.072Z,7.07
2022-09-23T07:11:25.837Z,4.95
2022-09-23T07:13:52.497Z,5.90
2022-09-23T07:16:19.299Z,6.55
2022-09-23T07:18:46.398Z,10.07
2022-09-23T07:21:17.428Z,9.13
2022-09-23T07:23:48.194Z,6.50
2022-09-23T07:26:16.092Z,6.32
2022-09-23T07:28:45.588Z,5.25
2022-09-23T07:31:22.748Z,10.00
2022-09-23T07:33:59.433Z,10.05
2022-09-23T07:36:28.042Z,7.25
2022-09-23T07:39:00.957Z,8.40
2022-09-23T07:41:28.973Z,6.22
2022-09-23T07:44:01.450Z,6.05
2022-09-23T07:46:30.562Z,8.45
2022-09-23T07:48:57.869Z,5.57
2022-09-23T07:51:30.810Z,4.93
2022-09-23T07:54:00.115Z,7.10
2022-09-23T07:56:31.631Z,7.97
2022-09-23T07:59:04.588Z,5.40
2022-09-23T08:01:36.568Z,4.95
2022-09-23T08:04:13.487Z,6.13
2022-09-23T08:06:42.451Z,7.75
2022-09-23T08:09:09.415Z,6.35
2022-09-23T08:11:41.777Z,4.53
2022-09-23T08:14:13.636Z,16.58
2022-09-23T08:16:41.345Z,5.10
2022-09-23T08:19:10.946Z,8.07
2022-09-23T08:21:41.782Z,4.70
2022-09-23T08:24:15.828Z,21.50
2022-09-23T08:26:44.138Z,5.38
2022-09-23T08:29:14.703Z,3.80
2022-09-23T08:31:42.022Z,4.90
2022-09-23T08:34:09.150Z,5.18
2022-09-23T08:36:38.958Z,7.47
2022-09-23T08:39:06.482Z,7.70
2022-09-23T08:41:59.011Z,6.30
2022-09-23T08:44:51.380Z,6.35
2022-09-23T08:47:39.230Z,6.53
2022-09-23T08:50:11.437Z,8.70
2022-09-23T08:52:58.856Z,6.03
2022-09-23T08:55:38.963Z,4.47
2022-09-23T08:58:30.866Z,3.42
2022-09-23T09:01:16.326Z,6.80
2022-09-23T09:03:53.843Z,5.10
2022-09-23T09:06:36.222Z,2.70
2022-09-23T09:09:33.048Z,5.00
2022-09-23T09:12:22.763Z,2.58
2022-09-23T09:15:11.519Z,5.28
2022-09-23T09:17:44.050Z,9.30
2022-09-23T09:20:38.986Z,17.00
2022-09-23T09:23:23.321Z,5.05
2022-09-23T09:25:50.017Z,5.45
2022-09-23T09:28:47.599Z,8.30
2022-09-23T09:31:22.489Z,6.30
2022-09-23T09:34:06.249Z,3.40
2022-09-23T09:36:53.118Z,6.13
2022-09-23T09:39:22.930Z,5.65
2022-09-23T09:41:58.575Z,6.00
2022-09-23T09:44:25.297Z,5.00
2022-09-23T09:46:59.091Z,2.70
2022-09-23T09:49:40.675Z,5.20
2022-09-23T09:52:22.521Z,2.55
2022-09-23T09:54:52.951Z,5.93
2022-09-23T09:57:36.228Z,3.65
2022-09-23T10:00:25.379Z,3.75
2022-09-23T10:03:15.157Z,5.68
2022-09-23T10:05:47.627Z,4.57
2022-09-23T10:08:28.541Z,4.05
2022-09-23T10:11:02.746Z,3.65
2022-09-23T10:13:30.256Z,6.40
2022-09-23T10:15:59.020Z,3.83
2022-09-23T10:18:48.627Z,4.10
2022-09-23T10:21:25.472Z,3.05
2022-09-23T10:23:57.948Z,3.90
2022-09-23T10:26:31.321Z,5.00
2022-09-23T10:28:59.771Z,7.03
2022-09-23T10:31:34.790Z,3.92
2022-09-23T10:34:12.805Z,2.85
2022-09-23T10:36:44.316Z,2.70
2022-09-23T10:39:30.204Z,4.80
2022-09-23T10:42:22.471Z,6.20
2022-09-23T10:45:29.676Z,8.30
2022-09-23T10:48:05.397Z,2.90
2022-09-23T10:50:51.747Z,2.70
2022-09-23T10:53:29.987Z,4.30
2022-09-23T10:56:24.932Z,3.92
2022-09-23T10:59:07.518Z,3.65
2022-09-23T11:01:46.242Z,3.95
2022-09-23T11:04:39.862Z,3.58
2022-09-23T11:07:28.713Z,5.45
2022-09-23T11:10:28.945Z,2.95
2022-09-23T11:13:11.280Z,4.28
2022-09-23T11:15:48.680Z,5.75
2022-09-23T11:18:29.304Z,2.88
2022-09-23T11:21:01.868Z,4.07
2022-09-23T11:23:54.340Z,3.50
2022-09-23T11:26:33.334Z,3.35
2022-09-23T11:29:20.291Z,5.68
2022-09-23T11:32:22.564Z,5.25
2022-09-23T11:35:11.153Z,2.75
2022-09-23T11:37:46.203Z,5.00
2022-09-23T11:40:23.644Z,6.28
2022-09-23T11:43:15.809Z,2.38
2022-09-23T11:46:09.667Z,3.58
2022-09-23T11:48:59.101Z,1.77
2022-09-23T11:51:59.728Z,3.05
2022-09-23T11:54:34.976Z,1.52
2022-09-23T11:57:04.089Z,3.08
2022-09-23T12:02:59.061Z,3.45
2022-09-23T12:05:39.890Z,3.33
2022-09-23T12:08:22.344Z,3.85
2022-09-23T12:10:53.728Z,4.25
2022-09-23T12:13:31.778Z,5.80
2022-09-23T12:16:17.552Z,1.63
2022-09-23T12:18:59.228Z,2.35
2022-09-23T12:21:51.453Z,2.15
2022-09-23T12:24:19.277Z,2.38
2022-09-23T12:26:50.595Z,2.33
2022-09-23T12:29:20.106Z,2.00
2022-09-23T12:31:48.214Z,3.42
2022-09-23T12:34:33.482Z,2.80
2022-09-23T12:37:04.201Z,1.38
2022-09-23T12:39:35.497Z,2.67
2022-09-23T12:42:04.602Z,1.45
2022-09-23T12:44:36.849Z,3.83
2022-09-23T12:47:25.727Z,4.07
2022-09-23T12:50:01.169Z,3.97
2022-09-23T12:52:30.923Z,3.55
2022-09-23T12:55:11.680Z,10.68
2022-09-23T12:57:41.888Z,2.55
2022-09-23T13:00:22.878Z,1.98
2022-09-23T13:03:16.754Z,4.63
2022-09-23T13:06:09.148Z,3.40
2022-09-23T13:08:38.402Z,4.07
2022-09-23T13:11:26.728Z,3.00
2022-09-23T13:13:55.664Z,3.78
2022-09-23T13:18:54.522Z,4.28
2022-09-23T13:21:43.033Z,1.50
2022-09-23T13:24:14.960Z,2.15
2022-09-23T13:26:52.402Z,1.58
2022-09-23T13:29:35.161Z,1.77
2022-09-23T13:32:03.753Z,5.47
2022-09-23T13:34:38.573Z,4.30
2022-09-23T13:37:22.649Z,4.47
2022-09-23T13:39:50.211Z,2.20
2022-09-23T13:42:29.317Z,3.33
2022-09-23T13:45:01.148Z,5.15
2022-09-23T13:47:31.044Z,3.45
2022-09-23T13:49:57.972Z,3.92
2022-09-23T13:52:30.006Z,2.65
2022-09-23T13:54:59.033Z,2.53
2022-09-23T13:57:26.629Z,2.72
2022-09-23T13:59:53.670Z,2.78
2022-09-23T14:02:28.382Z,3.83
2022-09-23T14:05:21.507Z,2.42
2022-09-23T14:07:51.753Z,1.77
2022-09-23T14:10:21.281Z,2.78
2022-09-23T14:12:51.454Z,3.17
2022-09-23T14:15:22.813Z,2.60
2022-09-23T14:17:59.105Z,2.20
2022-09-23T14:20:25.959Z,1.90
2022-09-23T14:23:14.743Z,3.90
2022-09-23T14:25:44.702Z,5.03
2022-09-23T14:28:16.961Z,1.67
2022-09-23T14:30:46.252Z,2.13
2022-09-23T14:33:27.416Z,7.82
2022-09-23T14:36:07.007Z,2.15
2022-09-23T14:38:51.881Z,2.15
2022-09-23T14:41:26.093Z,1.55
2022-09-23T14:44:02.548Z,1.83
2022-09-23T14:46:31.370Z,3.67
2022-09-23T14:49:07.101Z,3.58
2022-09-23T14:51:46.302Z,3.33
2022-09-23T14:54:23.354Z,2.30
2022-09-23T14:56:50.566Z,2.17
2022-09-23T14:59:47.494Z,2.83
2022-09-23T15:02:35.473Z,2.88
2022-09-23T15:05:22.680Z,3.55
2022-09-23T15:07:53.008Z,5.22
2022-09-23T15:10:32.862Z,2.25
2022-09-23T15:13:09.754Z,3.88
2022-09-23T15:15:39.321Z,3.83
2022-09-23T15:18:13.699Z,1.58
2022-09-23T15:20:40.681Z,3.50
2022-09-23T15:23:39.049Z,1.98
2022-09-23T15:26:10.077Z,3.70
2022-09-23T15:28:37.008Z,3.05
2022-09-23T15:31:05.781Z,1.70
2022-09-23T15:36:02.184Z,2.67
2022-09-23T15:38:28.887Z,3.47
2022-09-23T15:40:58.683Z,5.80
2022-09-23T15:43:27.921Z,4.68
2022-09-23T15:46:06.862Z,1.75
2022-09-23T15:48:58.445Z,3.60
2022-09-23T15:51:28.197Z,3.67
2022-09-23T15:53:59.535Z,1.50
2022-09-23T15:56:29.039Z,1.38
2022-09-23T15:59:00.863Z,1.42
2022-09-23T16:01:34.148Z,2.05
2022-09-23T16:04:03.972Z,2.60
2022-09-23T16:06:35.300Z,3.50
2022-09-23T16:09:02.567Z,3.28
2022-09-23T16:11:31.854Z,2.70
2022-09-23T16:14:00.684Z,1.98
2022-09-23T16:19:00.361Z,2.78
2022-09-23T16:21:28.114Z,1.98
2022-09-23T16:23:59.293Z,1.73
2022-09-23T16:26:31.333Z,3.33
2022-09-23T16:28:58.800Z,4.70
2022-09-23T16:31:31.461Z,4.32
2022-09-23T16:34:02.217Z,2.05
2022-09-23T16:36:35.725Z,2.05
2022-09-23T16:39:07.780Z,2.85
2022-09-23T16:41:37.224Z,2.63
2022-09-23T16:44:06.342Z,3.00
2022-09-23T16:49:00.438Z,2.38
2022-09-23T16:51:29.446Z,3.78
2022-09-23T16:54:01.939Z,3.17
2022-09-23T16:56:33.378Z,1.75
2022-09-23T16:59:00.218Z,4.10
2022-09-23T17:01:47.147Z,3.30
2022-09-23T17:04:15.358Z,3.45
2022-09-23T17:06:52.322Z,5.15
2022-09-23T17:09:21.559Z,2.40
2022-09-23T17:14:29.475Z,2.50
2022-09-23T17:16:58.643Z,3.05
2022-09-23T17:21:55.649Z,5.80
2022-09-23T17:24:24.594Z,4.88
2022-09-23T17:26:53.668Z,6.78
2022-09-23T17:29:20.477Z,8.60
2022-09-23T17:31:47.267Z,5.25
2022-09-23T17:34:14.002Z,2.67
2022-09-23T17:36:40.806Z,2.95
2022-09-23T17:39:09.923Z,3.83
2022-09-23T17:44:08.081Z,2.53
2022-09-23T17:46:37.396Z,3.80
2022-09-23T17:49:06.146Z,4.70
2022-09-23T17:51:33.275Z,5.93
2022-09-23T17:54:02.227Z,4.57
2022-09-23T17:56:32.801Z,5.53
2022-09-23T17:59:01.622Z,5.82
2022-09-23T18:01:28.620Z,4.00
2022-09-23T18:03:56.494Z,4.95
2022-09-23T18:06:25.058Z,3.95
2022-09-23T18:08:52.123Z,8.25
2022-09-23T18:11:27.129Z,4.95
2022-09-23T18:13:58.750Z,6.82
2022-09-23T18:16:28.120Z,7.50
2022-09-23T18:19:01.460Z,5.85
2022-09-23T18:21:35.844Z,6.20
2022-09-23T18:26:53.996Z,6.68
2022-09-23T18:29:20.727Z,6.00
2022-09-23T18:31:49.337Z,6.95
2022-09-23T18:34:21.740Z,4.88
2022-09-23T18:36:48.529Z,3.67
2022-09-23T18:39:15.441Z,6.00
2022-09-23T18:41:42.389Z,5.75
2022-09-23T18:44:12.327Z,7.80
2022-09-23T18:46:39.003Z,6.15
2022-09-23T18:49:24.258Z,5.70
2022-09-23T18:51:51.851Z,8.35
2022-09-23T18:54:22.422Z,4.90
2022-09-23T18:56:53.072Z,5.22
2022-09-23T18:59:24.134Z,6.22
2022-09-23T19:01:51.490Z,8.15
2022-09-23T19:04:22.115Z,5.30
2022-09-23T19:06:51.480Z,9.20
2022-09-23T19:11:45.354Z,6.45
2022-09-23T19:14:12.837Z,6.95
2022-09-23T19:16:40.526Z,8.88
2022-09-23T19:19:09.951Z,6.10
2022-09-23T19:24:07.039Z,11.02
2022-09-23T19:26:43.363Z,7.68
2022-09-23T19:29:14.292Z,6.57
2022-09-23T19:31:42.003Z,4.70
2022-09-23T19:34:23.880Z,4.45
2022-09-23T19:36:53.423Z,5.65
2022-09-23T19:39:24.205Z,6.90
2022-09-23T19:41:59.793Z,6.13
2022-09-23T19:44:32.832Z,11.05
2022-09-23T19:47:01.745Z,8.63
2022-09-23T19:49:32.387Z,12.35
2022-09-23T19:52:01.655Z,8.68
2022-09-23T19:54:36.304Z,11.18
2022-09-23T19:57:05.027Z,10.10
2022-09-23T19:59:31.735Z,9.27
2022-09-23T20:02:00.714Z,9.30
2022-09-23T20:04:27.487Z,8.25
2022-09-23T20:06:59.485Z,9.02
2022-09-23T20:09:28.944Z,8.45
2022-09-23T20:12:02.463Z,9.23
2022-09-23T20:14:29.671Z,10.45
2022-09-23T20:16:56.357Z,9.57
2022-09-23T20:19:35.589Z,8.95
2022-09-23T20:22:32.397Z,10.40
2022-09-23T20:25:13.308Z,8.05
2022-09-23T20:27:40.383Z,8.30
2022-09-23T20:30:09.967Z,9.57
2022-09-23T20:32:43.956Z,9.05
2022-09-23T20:35:12.799Z,9.10
2022-09-23T20:37:42.125Z,10.85
2022-09-23T20:40:17.723Z,11.38
2022-09-23T20:42:44.410Z,11.10
2022-09-23T20:45:13.334Z,11.85
2022-09-23T20:47:46.016Z,11.80
2022-09-23T20:50:12.736Z,10.68
2022-09-23T20:52:39.425Z,12.07
2022-09-23T20:55:09.361Z,11.07
2022-09-23T20:57:37.246Z,20.27
2022-09-23T21:00:04.761Z,12.25
2022-09-23T21:02:34.216Z,12.52
2022-09-23T21:05:00.945Z,12.75
2022-09-23T21:07:32.378Z,11.73
2022-09-23T21:10:01.881Z,13.18
2022-09-23T21:12:28.610Z,13.60
2022-09-23T21:14:55.233Z,12.43
2022-09-23T21:17:21.926Z,13.85
2022-09-23T21:19:48.608Z,16.02
2022-09-23T21:22:18.217Z,15.00
2022-09-23T21:25:26.946Z,15.70
2022-09-23T21:27:40.594Z,15.50
2022-09-23T21:30:10.260Z,10.98
2022-09-23T21:32:36.965Z,12.68
2022-09-23T21:35:10.276Z,10.55
2022-09-23T21:37:37.188Z,10.05
2022-09-23T21:40:35.662Z,12.80
2022-09-23T21:43:02.357Z,12.43
2022-09-23T21:45:31.724Z,11.30
2022-09-23T21:50:29.478Z,12.10
2022-09-23T21:52:58.293Z,10.95
2022-09-23T21:55:27.739Z,10.95
2022-09-23T22:00:20.969Z,9.88
2022-09-23T22:02:47.672Z,8.65
2022-09-23T22:05:16.572Z,11.32
2022-09-23T22:07:50.664Z,10.10
2022-09-23T22:10:19.539Z,11.77
2022-09-23T22:12:48.710Z,9.95
2022-09-23T22:15:20.405Z,9.15
2022-09-23T22:17:50.042Z,8.77
2022-09-23T22:20:17.006Z,11.65
2022-09-23T22:22:46.139Z,10.90
2022-09-23T22:25:12.822Z,10.13
2022-09-23T22:27:59.457Z,9.73
2022-09-23T22:30:47.322Z,9.98
2022-09-23T22:33:19.576Z,10.85
2022-09-23T22:35:46.468Z,13.20
2022-09-23T22:38:13.110Z,10.90
2022-09-23T22:40:43.002Z,9.63
2022-09-23T22:43:28.135Z,9.98
2022-09-23T22:45:54.834Z,10.38
2022-09-23T22:48:21.603Z,10.10
2022-09-23T22:50:48.318Z,9.45
2022-09-23T22:53:17.660Z,11.20
2022-09-23T22:55:44.336Z,11.32
2022-09-23T22:58:31.069Z,7.93
2022-09-23T23:00:58.278Z,11.45
2022-09-23T23:03:26.722Z,12.07
2022-09-23T23:05:57.471Z,9.37
2022-09-23T23:08:30.612Z,10.02
2022-09-23T23:11:02.433Z,9.98
2022-09-23T23:13:33.012Z,9.75
2022-09-23T23:16:04.871Z,10.43
2022-09-23T23:18:35.561Z,10.05
2022-09-23T23:21:15.361Z,8.32
2022-09-23T23:23:44.593Z,8.80
2022-09-23T23:26:14.711Z,11.77
2022-09-23T23:28:46.686Z,11.68
2022-09-23T23:31:17.747Z,9.30
2022-09-23T23:33:45.400Z,8.20
2022-09-23T23:36:16.711Z,7.28
2022-09-23T23:38:47.675Z,7.82
2022-09-23T23:41:20.202Z,7.40
2022-09-23T23:43:57.028Z,8.13
2022-09-23T23:46:30.082Z,8.30
2022-09-23T23:48:57.546Z,9.25
2022-09-23T23:51:27.962Z,9.25
2022-09-23T23:53:55.232Z,7.72
2022-09-23T23:56:28.240Z,8.15
2022-09-23T23:58:58.232Z,9.85
